sensor_id;sensor_type;location;lat;lon;timestamp;P1;durP1;ratioP1;P2;durP2;ratioP2
11522;SDS011;70090;43.208;27.904;2023-07-29T00:02:02;9.83;;;4.60;;
11522;SDS011;70090;43.208;27.904;2023-07-29T00:04:29;7.73;;;4.30;;
11522;SDS011;70090;43.208;27.904;2023-07-29T00:06:56;5.80;;;4.60;;
11522;SDS011;70090;43.208;27.904;2023-07-29T00:09:23;5.20;;;4.50;;
11522;SDS011;70090;43.208;27.904;2023-07-29T00:11:50;6.43;;;4.67;;
11522;SDS011;70090;43.208;27.904;2023-07-29T00:14:17;6.50;;;5.00;;
11522;SDS011;70090;43.208;27.904;2023-07-29T00:16:45;6.80;;;4.53;;
11522;SDS011;70090;43.208;27.904;2023-07-29T00:19:12;5.37;;;4.50;;
11522;SDS011;70090;43.208;27.904;2023-07-29T00:21:39;7.80;;;4.67;;
11522;SDS011;70090;43.208;27.904;2023-07-29T00:24:06;7.30;;;4.60;;
11522;SDS011;70090;43.208;27.904;2023-07-29T00:26:33;5.33;;;4.67;;
11522;SDS011;70090;43.208;27.904;2023-07-29T00:29:00;7.00;;;5.53;;
11522;SDS011;70090;43.208;27.904;2023-07-29T00:31:27;7.80;;;4.93;;
11522;SDS011;70090;43.208;27.904;2023-07-29T00:33:55;7.97;;;5.63;;
11522;SDS011;70090;43.208;27.904;2023-07-29T00:36:23;8.53;;;6.20;;
11522;SDS011;70090;43.208;27.904;2023-07-29T00:38:50;9.47;;;5.73;;
11522;SDS011;70090;43.208;27.904;2023-07-29T00:41:18;7.60;;;5.27;;
11522;SDS011;70090;43.208;27.904;2023-07-29T00:43:45;7.20;;;5.57;;
11522;SDS011;70090;43.208;27.904;2023-07-29T00:46:12;9.00;;;5.70;;
11522;SDS011;70090;43.208;27.904;2023-07-29T00:48:39;8.00;;;5.43;;
11522;SDS011;70090;43.208;27.904;2023-07-29T00:51:08;8.60;;;5.17;;
11522;SDS011;70090;43.208;27.904;2023-07-29T00:53:35;13.43;;;5.90;;
11522;SDS011;70090;43.208;27.904;2023-07-29T00:56:02;9.33;;;5.97;;
11522;SDS011;70090;43.208;27.904;2023-07-29T00:58:29;10.20;;;5.97;;
11522;SDS011;70090;43.208;27.904;2023-07-29T01:00:56;12.10;;;6.13;;
11522;SDS011;70090;43.208;27.904;2023-07-29T01:03:23;8.70;;;5.63;;
11522;SDS011;70090;43.208;27.904;2023-07-29T01:05:54;14.57;;;6.50;;
11522;SDS011;70090;43.208;27.904;2023-07-29T01:08:37;17.70;;;6.83;;
11522;SDS011;70090;43.208;27.904;2023-07-29T01:11:11;12.90;;;6.53;;
11522;SDS011;70090;43.208;27.904;2023-07-29T01:13:55;16.57;;;6.53;;
11522;SDS011;70090;43.208;27.904;2023-07-29T01:16:30;13.73;;;6.60;;
11522;SDS011;70090;43.208;27.904;2023-07-29T01:19:03;17.40;;;7.10;;
11522;SDS011;70090;43.208;27.904;2023-07-29T01:21:33;18.93;;;7.07;;
11522;SDS011;70090;43.208;27.904;2023-07-29T01:24:04;20.20;;;7.57;;
11522;SDS011;70090;43.208;27.904;2023-07-29T01:26:31;14.23;;;7.43;;
11522;SDS011;70090;43.208;27.904;2023-07-29T01:28:57;17.07;;;7.23;;
11522;SDS011;70090;43.208;27.904;2023-07-29T01:31:27;11.50;;;6.60;;
11522;SDS011;70090;43.208;27.904;2023-07-29T01:33:58;16.83;;;6.70;;
11522;SDS011;70090;43.208;27.904;2023-07-29T01:36:43;13.57;;;6.37;;
11522;SDS011;70090;43.208;27.904;2023-07-29T01:39:14;12.17;;;6.23;;
11522;SDS011;70090;43.208;27.904;2023-07-29T01:41:42;9.47;;;6.07;;
11522;SDS011;70090;43.208;27.904;2023-07-29T01:44:10;9.63;;;6.07;;
11522;SDS011;70090;43.208;27.904;2023-07-29T01:46:38;11.47;;;6.23;;
11522;SDS011;70090;43.208;27.904;2023-07-29T01:49:04;6.33;;;5.73;;
11522;SDS011;70090;43.208;27.904;2023-07-29T01:51:31;9.23;;;6.03;;
11522;SDS011;70090;43.208;27.904;2023-07-29T01:53:58;10.33;;;6.87;;
11522;SDS011;70090;43.208;27.904;2023-07-29T01:56:26;11.20;;;5.93;;
11522;SDS011;70090;43.208;27.904;2023-07-29T01:58:53;10.27;;;5.97;;
11522;SDS011;70090;43.208;27.904;2023-07-29T02:01:20;11.27;;;6.33;;
11522;SDS011;70090;43.208;27.904;2023-07-29T02:03:47;9.10;;;6.60;;
11522;SDS011;70090;43.208;27.904;2023-07-29T02:06:19;10.77;;;5.67;;
11522;SDS011;70090;43.208;27.904;2023-07-29T02:08:46;11.40;;;6.33;;
11522;SDS011;70090;43.208;27.904;2023-07-29T02:11:13;8.10;;;6.23;;
11522;SDS011;70090;43.208;27.904;2023-07-29T02:13:41;12.07;;;6.20;;
11522;SDS011;70090;43.208;27.904;2023-07-29T02:16:08;11.50;;;5.87;;
11522;SDS011;70090;43.208;27.904;2023-07-29T02:18:35;12.30;;;5.90;;
11522;SDS011;70090;43.208;27.904;2023-07-29T02:21:02;10.83;;;6.20;;
11522;SDS011;70090;43.208;27.904;2023-07-29T02:23:29;11.23;;;6.10;;
11522;SDS011;70090;43.208;27.904;2023-07-29T02:26:08;10.93;;;5.70;;
11522;SDS011;70090;43.208;27.904;2023-07-29T06:02:07;20.87;;;12.93;;
11522;SDS011;70090;43.208;27.904;2023-07-29T06:04:34;22.07;;;12.57;;
11522;SDS011;70090;43.208;27.904;2023-07-29T06:07:01;15.63;;;12.90;;
11522;SDS011;70090;43.208;27.904;2023-07-29T06:09:28;16.37;;;13.63;;
11522;SDS011;70090;43.208;27.904;2023-07-29T06:11:55;18.40;;;13.17;;
11522;SDS011;70090;43.208;27.904;2023-07-29T06:14:22;17.47;;;13.80;;
11522;SDS011;70090;43.208;27.904;2023-07-29T06:16:49;22.53;;;13.40;;
11522;SDS011;70090;43.208;27.904;2023-07-29T06:19:17;25.70;;;13.23;;
11522;SDS011;70090;43.208;27.904;2023-07-29T06:21:44;17.47;;;12.90;;
11522;SDS011;70090;43.208;27.904;2023-07-29T06:24:11;20.70;;;11.23;;
11522;SDS011;70090;43.208;27.904;2023-07-29T06:26:38;19.67;;;11.00;;
11522;SDS011;70090;43.208;27.904;2023-07-29T06:29:05;21.33;;;9.83;;
11522;SDS011;70090;43.208;27.904;2023-07-29T06:31:32;12.20;;;8.33;;
11522;SDS011;70090;43.208;27.904;2023-07-29T06:33:58;14.00;;;6.97;;
11522;SDS011;70090;43.208;27.904;2023-07-29T06:36:27;8.67;;;6.00;;
11522;SDS011;70090;43.208;27.904;2023-07-29T06:38:54;11.13;;;6.97;;
11522;SDS011;70090;43.208;27.904;2023-07-29T06:41:21;8.57;;;5.50;;
11522;SDS011;70090;43.208;27.904;2023-07-29T06:43:47;10.03;;;6.43;;
11522;SDS011;70090;43.208;27.904;2023-07-29T06:46:14;8.83;;;5.40;;
11522;SDS011;70090;43.208;27.904;2023-07-29T06:48:41;9.97;;;5.77;;
11522;SDS011;70090;43.208;27.904;2023-07-29T06:51:08;10.17;;;5.30;;
11522;SDS011;70090;43.208;27.904;2023-07-29T06:53:36;9.73;;;6.83;;
11522;SDS011;70090;43.208;27.904;2023-07-29T06:56:03;10.93;;;6.47;;
11522;SDS011;70090;43.208;27.904;2023-07-29T06:58:30;11.93;;;6.80;;
11522;SDS011;70090;43.208;27.904;2023-07-29T07:00:57;10.77;;;6.63;;
11522;SDS011;70090;43.208;27.904;2023-07-29T07:03:24;11.30;;;7.90;;
11522;SDS011;70090;43.208;27.904;2023-07-29T07:05:51;10.03;;;6.47;;
11522;SDS011;70090;43.208;27.904;2023-07-29T07:08:17;11.90;;;6.53;;
11522;SDS011;70090;43.208;27.904;2023-07-29T07:10:46;10.77;;;6.67;;
11522;SDS011;70090;43.208;27.904;2023-07-29T07:13:13;10.67;;;5.80;;
11522;SDS011;70090;43.208;27.904;2023-07-29T07:15:40;13.53;;;7.17;;
11522;SDS011;70090;43.208;27.904;2023-07-29T07:18:06;13.57;;;7.27;;
11522;SDS011;70090;43.208;27.904;2023-07-29T07:20:34;11.20;;;6.30;;
11522;SDS011;70090;43.208;27.904;2023-07-29T07:23:02;8.80;;;6.10;;
11522;SDS011;70090;43.208;27.904;2023-07-29T07:25:30;7.80;;;5.17;;
11522;SDS011;70090;43.208;27.904;2023-07-29T07:27:58;9.73;;;5.70;;
11522;SDS011;70090;43.208;27.904;2023-07-29T07:30:25;6.60;;;4.57;;
11522;SDS011;70090;43.208;27.904;2023-07-29T07:32:52;7.13;;;5.47;;
11522;SDS011;70090;43.208;27.904;2023-07-29T07:35:19;7.37;;;5.93;;
11522;SDS011;70090;43.208;27.904;2023-07-29T07:37:46;9.30;;;7.13;;
11522;SDS011;70090;43.208;27.904;2023-07-29T07:40:13;10.70;;;7.50;;
11522;SDS011;70090;43.208;27.904;2023-07-29T07:42:39;9.00;;;7.70;;
11522;SDS011;70090;43.208;27.904;2023-07-29T07:45:08;11.73;;;7.80;;
11522;SDS011;70090;43.208;27.904;2023-07-29T07:47:35;9.57;;;6.67;;
11522;SDS011;70090;43.208;27.904;2023-07-29T07:50:02;9.93;;;6.40;;
11522;SDS011;70090;43.208;27.904;2023-07-29T07:52:29;8.77;;;6.53;;
11522;SDS011;70090;43.208;27.904;2023-07-29T07:54:56;10.53;;;6.93;;
11522;SDS011;70090;43.208;27.904;2023-07-29T07:57:22;6.70;;;6.10;;
11522;SDS011;70090;43.208;27.904;2023-07-29T07:59:49;5.63;;;3.70;;
11522;SDS011;70090;43.208;27.904;2023-07-29T08:02:18;6.07;;;3.70;;
11522;SDS011;70090;43.208;27.904;2023-07-29T08:04:46;6.17;;;3.80;;
11522;SDS011;70090;43.208;27.904;2023-07-29T08:07:13;5.33;;;3.10;;
11522;SDS011;70090;43.208;27.904;2023-07-29T08:09:40;5.10;;;2.80;;
11522;SDS011;70090;43.208;27.904;2023-07-29T08:12:07;5.03;;;3.20;;
11522;SDS011;70090;43.208;27.904;2023-07-29T08:14:34;3.33;;;2.80;;
11522;SDS011;70090;43.208;27.904;2023-07-29T08:17:01;3.10;;;2.70;;
11522;SDS011;70090;43.208;27.904;2023-07-29T08:19:29;3.97;;;2.70;;
11522;SDS011;70090;43.208;27.904;2023-07-29T08:21:56;6.30;;;3.00;;
11522;SDS011;70090;43.208;27.904;2023-07-29T08:24:23;3.10;;;2.80;;
11522;SDS011;70090;43.208;27.904;2023-07-29T08:26:50;3.47;;;2.77;;
11522;SDS011;70090;43.208;27.904;2023-07-29T08:29:17;3.77;;;2.47;;
11522;SDS011;70090;43.208;27.904;2023-07-29T08:31:44;3.43;;;2.63;;
11522;SDS011;70090;43.208;27.904;2023-07-29T08:34:10;2.97;;;2.67;;
11522;SDS011;70090;43.208;27.904;2023-07-29T08:36:39;2.90;;;2.30;;
11522;SDS011;70090;43.208;27.904;2023-07-29T08:39:05;3.20;;;2.40;;
11522;SDS011;70090;43.208;27.904;2023-07-29T08:41:34;2.77;;;2.57;;
11522;SDS011;70090;43.208;27.904;2023-07-29T08:44:09;5.77;;;3.53;;
11522;SDS011;70090;43.208;27.904;2023-07-29T08:46:38;4.83;;;3.70;;
11522;SDS011;70090;43.208;27.904;2023-07-29T08:49:05;9.47;;;3.67;;
11522;SDS011;70090;43.208;27.904;2023-07-29T08:51:33;6.33;;;4.10;;
11522;SDS011;70090;43.208;27.904;2023-07-29T08:54:02;7.07;;;3.13;;
11522;SDS011;70090;43.208;27.904;2023-07-29T08:56:30;6.00;;;3.63;;
11522;SDS011;70090;43.208;27.904;2023-07-29T08:58:57;7.33;;;4.00;;
11522;SDS011;70090;43.208;27.904;2023-07-29T09:01:27;6.43;;;4.43;;
11522;SDS011;70090;43.208;27.904;2023-07-29T09:03:55;7.23;;;4.73;;
11522;SDS011;70090;43.208;27.904;2023-07-29T09:06:22;11.43;;;4.53;;
11522;SDS011;70090;43.208;27.904;2023-07-29T09:08:50;7.77;;;4.90;;
11522;SDS011;70090;43.208;27.904;2023-07-29T09:11:22;8.20;;;4.97;;
11522;SDS011;70090;43.208;27.904;2023-07-29T09:13:49;7.63;;;5.00;;
11522;SDS011;70090;43.208;27.904;2023-07-29T09:16:18;10.27;;;5.13;;
11522;SDS011;70090;43.208;27.904;2023-07-29T09:18:47;5.63;;;4.13;;
11522;SDS011;70090;43.208;27.904;2023-07-29T09:21:15;5.67;;;4.47;;
11522;SDS011;70090;43.208;27.904;2023-07-29T09:23:44;5.97;;;4.70;;
11522;SDS011;70090;43.208;27.904;2023-07-29T09:26:11;7.27;;;4.17;;
11522;SDS011;70090;43.208;27.904;2023-07-29T09:28:39;5.33;;;4.30;;
11522;SDS011;70090;43.208;27.904;2023-07-29T09:31:06;4.70;;;4.27;;
11522;SDS011;70090;43.208;27.904;2023-07-29T09:33:45;5.37;;;3.83;;
11522;SDS011;70090;43.208;27.904;2023-07-29T09:36:12;7.57;;;3.93;;
11522;SDS011;70090;43.208;27.904;2023-07-29T09:38:42;8.57;;;4.00;;
11522;SDS011;70090;43.208;27.904;2023-07-29T09:41:11;6.33;;;3.70;;
11522;SDS011;70090;43.208;27.904;2023-07-29T09:43:40;7.57;;;4.10;;
11522;SDS011;70090;43.208;27.904;2023-07-29T09:46:07;6.80;;;3.80;;
11522;SDS011;70090;43.208;27.904;2023-07-29T09:48:34;3.70;;;3.40;;
11522;SDS011;70090;43.208;27.904;2023-07-29T09:51:09;4.70;;;3.33;;
11522;SDS011;70090;43.208;27.904;2023-07-29T09:53:39;4.53;;;3.67;;
11522;SDS011;70090;43.208;27.904;2023-07-29T09:56:07;5.73;;;3.10;;
11522;SDS011;70090;43.208;27.904;2023-07-29T09:58:34;4.13;;;3.30;;
11522;SDS011;70090;43.208;27.904;2023-07-29T10:01:05;6.10;;;3.80;;
11522;SDS011;70090;43.208;27.904;2023-07-29T10:03:32;4.70;;;3.33;;
11522;SDS011;70090;43.208;27.904;2023-07-29T10:06:00;8.23;;;3.43;;
11522;SDS011;70090;43.208;27.904;2023-07-29T10:08:29;6.23;;;3.43;;
11522;SDS011;70090;43.208;27.904;2023-07-29T10:10:56;8.43;;;3.20;;
11522;SDS011;70090;43.208;27.904;2023-07-29T10:13:25;4.67;;;2.93;;
11522;SDS011;70090;43.208;27.904;2023-07-29T10:15:53;6.03;;;3.27;;
11522;SDS011;70090;43.208;27.904;2023-07-29T10:18:22;6.07;;;5.00;;
11522;SDS011;70090;43.208;27.904;2023-07-29T10:20:50;5.13;;;2.97;;
11522;SDS011;70090;43.208;27.904;2023-07-29T10:23:18;8.70;;;3.87;;
11522;SDS011;70090;43.208;27.904;2023-07-29T10:25:46;4.73;;;3.23;;
11522;SDS011;70090;43.208;27.904;2023-07-29T10:28:15;4.80;;;3.13;;
11522;SDS011;70090;43.208;27.904;2023-07-29T10:30:46;6.93;;;3.97;;
11522;SDS011;70090;43.208;27.904;2023-07-29T10:33:14;7.87;;;3.80;;
11522;SDS011;70090;43.208;27.904;2023-07-29T10:35:42;5.17;;;3.07;;
11522;SDS011;70090;43.208;27.904;2023-07-29T10:38:09;5.00;;;3.23;;
11522;SDS011;70090;43.208;27.904;2023-07-29T10:40:45;6.83;;;3.67;;
11522;SDS011;70090;43.208;27.904;2023-07-29T10:43:18;4.73;;;3.50;;
11522;SDS011;70090;43.208;27.904;2023-07-29T10:45:46;3.93;;;3.00;;
11522;SDS011;70090;43.208;27.904;2023-07-29T10:48:13;3.60;;;3.30;;
11522;SDS011;70090;43.208;27.904;2023-07-29T10:51:23;6.57;;;3.50;;
11522;SDS011;70090;43.208;27.904;2023-07-29T10:53:55;5.43;;;3.30;;
11522;SDS011;70090;43.208;27.904;2023-07-29T10:56:29;7.80;;;4.13;;
11522;SDS011;70090;43.208;27.904;2023-07-29T10:58:58;5.23;;;3.80;;
11522;SDS011;70090;43.208;27.904;2023-07-29T11:01:28;6.30;;;4.80;;
11522;SDS011;70090;43.208;27.904;2023-07-29T11:09:55;6.70;;;4.53;;
11522;SDS011;70090;43.208;27.904;2023-07-29T11:12:36;4.30;;;3.73;;
11522;SDS011;70090;43.208;27.904;2023-07-29T11:15:04;4.27;;;3.60;;
11522;SDS011;70090;43.208;27.904;2023-07-29T11:17:39;4.30;;;3.57;;
11522;SDS011;70090;43.208;27.904;2023-07-29T11:20:07;7.80;;;3.97;;
11522;SDS011;70090;43.208;27.904;2023-07-29T11:22:36;12.07;;;7.20;;
11522;SDS011;70090;43.208;27.904;2023-07-29T11:25:04;9.73;;;5.13;;
11522;SDS011;70090;43.208;27.904;2023-07-29T11:27:31;5.00;;;4.20;;
11522;SDS011;70090;43.208;27.904;2023-07-29T11:29:58;5.60;;;3.90;;
11522;SDS011;70090;43.208;27.904;2023-07-29T11:32:27;5.87;;;3.53;;
11522;SDS011;70090;43.208;27.904;2023-07-29T11:34:54;5.00;;;4.07;;
11522;SDS011;70090;43.208;27.904;2023-07-29T11:37:21;6.67;;;3.70;;
11522;SDS011;70090;43.208;27.904;2023-07-29T11:39:49;4.13;;;3.50;;
11522;SDS011;70090;43.208;27.904;2023-07-29T11:42:16;7.23;;;4.23;;
11522;SDS011;70090;43.208;27.904;2023-07-29T11:44:43;7.03;;;4.20;;
11522;SDS011;70090;43.208;27.904;2023-07-29T11:47:10;7.60;;;3.60;;
11522;SDS011;70090;43.208;27.904;2023-07-29T11:49:39;6.17;;;3.57;;
11522;SDS011;70090;43.208;27.904;2023-07-29T11:52:07;6.73;;;3.87;;
11522;SDS011;70090;43.208;27.904;2023-07-29T11:54:34;7.00;;;3.37;;
11522;SDS011;70090;43.208;27.904;2023-07-29T11:57:04;6.83;;;3.70;;
11522;SDS011;70090;43.208;27.904;2023-07-29T11:59:33;6.47;;;3.00;;
11522;SDS011;70090;43.208;27.904;2023-07-29T12:02:00;5.40;;;3.20;;
11522;SDS011;70090;43.208;27.904;2023-07-29T12:04:28;3.67;;;3.27;;
11522;SDS011;70090;43.208;27.904;2023-07-29T12:06:56;5.73;;;2.80;;
11522;SDS011;70090;43.208;27.904;2023-07-29T12:09:23;5.57;;;3.87;;
11522;SDS011;70090;43.208;27.904;2023-07-29T12:11:53;8.37;;;3.53;;
11522;SDS011;70090;43.208;27.904;2023-07-29T12:14:21;4.13;;;3.67;;
11522;SDS011;70090;43.208;27.904;2023-07-29T12:16:51;7.13;;;3.40;;
11522;SDS011;70090;43.208;27.904;2023-07-29T12:19:18;5.33;;;3.70;;
11522;SDS011;70090;43.208;27.904;2023-07-29T12:21:47;5.73;;;3.97;;
11522;SDS011;70090;43.208;27.904;2023-07-29T12:24:14;5.33;;;3.60;;
11522;SDS011;70090;43.208;27.904;2023-07-29T12:26:42;6.53;;;3.50;;
11522;SDS011;70090;43.208;27.904;2023-07-29T12:29:12;6.00;;;3.03;;
11522;SDS011;70090;43.208;27.904;2023-07-29T12:31:40;6.97;;;3.07;;
11522;SDS011;70090;43.208;27.904;2023-07-29T12:34:07;5.03;;;3.17;;
11522;SDS011;70090;43.208;27.904;2023-07-29T12:36:41;2.90;;;2.60;;
11522;SDS011;70090;43.208;27.904;2023-07-29T12:39:16;8.60;;;3.77;;
11522;SDS011;70090;43.208;27.904;2023-07-29T12:41:44;4.37;;;2.83;;
11522;SDS011;70090;43.208;27.904;2023-07-29T12:44:11;7.67;;;2.90;;
11522;SDS011;70090;43.208;27.904;2023-07-29T12:46:38;4.50;;;2.90;;
11522;SDS011;70090;43.208;27.904;2023-07-29T12:49:06;6.33;;;2.97;;
11522;SDS011;70090;43.208;27.904;2023-07-29T12:51:33;5.13;;;2.80;;
11522;SDS011;70090;43.208;27.904;2023-07-29T12:54:01;5.60;;;2.90;;
11522;SDS011;70090;43.208;27.904;2023-07-29T12:56:28;5.50;;;2.90;;
11522;SDS011;70090;43.208;27.904;2023-07-29T12:58:55;5.90;;;3.10;;
11522;SDS011;70090;43.208;27.904;2023-07-29T13:01:22;7.40;;;3.10;;
11522;SDS011;70090;43.208;27.904;2023-07-29T13:03:49;3.87;;;2.63;;
11522;SDS011;70090;43.208;27.904;2023-07-29T13:06:18;5.70;;;2.50;;
11522;SDS011;70090;43.208;27.904;2023-07-29T13:08:45;6.37;;;2.63;;
11522;SDS011;70090;43.208;27.904;2023-07-29T13:11:13;3.13;;;2.40;;
11522;SDS011;70090;43.208;27.904;2023-07-29T13:13:41;5.70;;;2.93;;
11522;SDS011;70090;43.208;27.904;2023-07-29T13:16:08;3.97;;;2.87;;
11522;SDS011;70090;43.208;27.904;2023-07-29T13:18:34;9.03;;;3.50;;
11522;SDS011;70090;43.208;27.904;2023-07-29T13:21:01;6.90;;;3.10;;
11522;SDS011;70090;43.208;27.904;2023-07-29T13:23:30;6.10;;;3.50;;
11522;SDS011;70090;43.208;27.904;2023-07-29T13:25:56;4.57;;;3.07;;
11522;SDS011;70090;43.208;27.904;2023-07-29T13:28:24;3.20;;;2.63;;
11522;SDS011;70090;43.208;27.904;2023-07-29T13:30:50;5.93;;;3.27;;
11522;SDS011;70090;43.208;27.904;2023-07-29T13:33:17;6.27;;;3.60;;
11522;SDS011;70090;43.208;27.904;2023-07-29T13:35:44;7.30;;;3.13;;
11522;SDS011;70090;43.208;27.904;2023-07-29T13:38:11;4.43;;;2.83;;
11522;SDS011;70090;43.208;27.904;2023-07-29T13:40:39;5.97;;;2.60;;
11522;SDS011;70090;43.208;27.904;2023-07-29T13:43:06;7.40;;;3.40;;
11522;SDS011;70090;43.208;27.904;2023-07-29T13:45:33;4.00;;;2.87;;
11522;SDS011;70090;43.208;27.904;2023-07-29T13:48:00;5.00;;;2.80;;
11522;SDS011;70090;43.208;27.904;2023-07-29T13:50:27;4.47;;;2.93;;
11522;SDS011;70090;43.208;27.904;2023-07-29T13:52:54;7.07;;;4.77;;
11522;SDS011;70090;43.208;27.904;2023-07-29T13:55:21;5.77;;;2.50;;
11522;SDS011;70090;43.208;27.904;2023-07-29T13:57:49;7.87;;;2.70;;
11522;SDS011;70090;43.208;27.904;2023-07-29T14:00:16;5.07;;;2.90;;
11522;SDS011;70090;43.208;27.904;2023-07-29T14:02:43;5.07;;;3.70;;
11522;SDS011;70090;43.208;27.904;2023-07-29T14:05:10;3.73;;;3.10;;
11522;SDS011;70090;43.208;27.904;2023-07-29T14:07:37;6.27;;;3.00;;
11522;SDS011;70090;43.208;27.904;2023-07-29T14:10:04;7.47;;;2.90;;
11522;SDS011;70090;43.208;27.904;2023-07-29T14:12:31;6.47;;;2.90;;
11522;SDS011;70090;43.208;27.904;2023-07-29T14:14:59;5.63;;;2.60;;
11522;SDS011;70090;43.208;27.904;2023-07-29T14:17:26;4.87;;;2.70;;
11522;SDS011;70090;43.208;27.904;2023-07-29T14:19:53;9.77;;;3.27;;
11522;SDS011;70090;43.208;27.904;2023-07-29T14:22:19;7.13;;;3.00;;
11522;SDS011;70090;43.208;27.904;2023-07-29T14:24:46;10.57;;;3.47;;
11522;SDS011;70090;43.208;27.904;2023-07-29T14:27:13;10.37;;;3.07;;
11522;SDS011;70090;43.208;27.904;2023-07-29T14:29:41;4.10;;;2.80;;
11522;SDS011;70090;43.208;27.904;2023-07-29T14:32:09;5.63;;;3.10;;
11522;SDS011;70090;43.208;27.904;2023-07-29T14:34:36;6.73;;;2.90;;
11522;SDS011;70090;43.208;27.904;2023-07-29T14:37:03;4.23;;;2.90;;
11522;SDS011;70090;43.208;27.904;2023-07-29T14:39:31;5.63;;;2.80;;
11522;SDS011;70090;43.208;27.904;2023-07-29T14:41:58;4.50;;;2.80;;
11522;SDS011;70090;43.208;27.904;2023-07-29T14:44:25;8.10;;;2.90;;
11522;SDS011;70090;43.208;27.904;2023-07-29T14:46:51;3.60;;;2.57;;
11522;SDS011;70090;43.208;27.904;2023-07-29T14:49:21;5.77;;;2.67;;
11522;SDS011;70090;43.208;27.904;2023-07-29T14:51:48;4.80;;;2.60;;
11522;SDS011;70090;43.208;27.904;2023-07-29T14:54:15;5.73;;;3.47;;
11522;SDS011;70090;43.208;27.904;2023-07-29T14:56:42;9.13;;;3.43;;
11522;SDS011;70090;43.208;27.904;2023-07-29T14:59:08;3.37;;;2.80;;
11522;SDS011;70090;43.208;27.904;2023-07-29T15:01:35;3.87;;;2.90;;
11522;SDS011;70090;43.208;27.904;2023-07-29T15:04:02;4.67;;;3.93;;
11522;SDS011;70090;43.208;27.904;2023-07-29T15:06:31;5.80;;;3.00;;
11522;SDS011;70090;43.208;27.904;2023-07-29T15:08:57;4.57;;;2.83;;
11522;SDS011;70090;43.208;27.904;2023-07-29T15:11:24;3.63;;;2.40;;
11522;SDS011;70090;43.208;27.904;2023-07-29T15:13:51;4.80;;;3.07;;
11522;SDS011;70090;43.208;27.904;2023-07-29T15:16:18;4.87;;;3.10;;
11522;SDS011;70090;43.208;27.904;2023-07-29T15:18:49;3.93;;;2.70;;
11522;SDS011;70090;43.208;27.904;2023-07-29T15:21:16;6.70;;;2.90;;
11522;SDS011;70090;43.208;27.904;2023-07-29T15:23:44;9.30;;;3.57;;
11522;SDS011;70090;43.208;27.904;2023-07-29T15:26:11;4.73;;;2.70;;
11522;SDS011;70090;43.208;27.904;2023-07-29T15:28:38;6.53;;;3.10;;
11522;SDS011;70090;43.208;27.904;2023-07-29T15:31:05;3.47;;;2.40;;
11522;SDS011;70090;43.208;27.904;2023-07-29T15:33:32;9.27;;;3.17;;
11522;SDS011;70090;43.208;27.904;2023-07-29T15:35:59;5.63;;;2.80;;
11522;SDS011;70090;43.208;27.904;2023-07-29T15:38:26;3.23;;;2.70;;
11522;SDS011;70090;43.208;27.904;2023-07-29T15:40:54;5.87;;;3.10;;
11522;SDS011;70090;43.208;27.904;2023-07-29T15:43:21;6.77;;;2.90;;
11522;SDS011;70090;43.208;27.904;2023-07-29T15:45:48;4.13;;;2.70;;
11522;SDS011;70090;43.208;27.904;2023-07-29T15:48:15;3.53;;;2.50;;
11522;SDS011;70090;43.208;27.904;2023-07-29T15:50:42;3.57;;;2.50;;
11522;SDS011;70090;43.208;27.904;2023-07-29T15:53:09;3.40;;;2.60;;
11522;SDS011;70090;43.208;27.904;2023-07-29T15:55:36;6.33;;;3.13;;
11522;SDS011;70090;43.208;27.904;2023-07-29T15:58:04;5.97;;;2.70;;
11522;SDS011;70090;43.208;27.904;2023-07-29T16:00:31;6.67;;;3.30;;
11522;SDS011;70090;43.208;27.904;2023-07-29T16:02:58;4.53;;;2.70;;
11522;SDS011;70090;43.208;27.904;2023-07-29T16:05:24;5.20;;;3.10;;
11522;SDS011;70090;43.208;27.904;2023-07-29T16:07:51;4.80;;;3.47;;
11522;SDS011;70090;43.208;27.904;2023-07-29T16:10:21;8.10;;;4.40;;
11522;SDS011;70090;43.208;27.904;2023-07-29T16:12:48;5.27;;;3.60;;
11522;SDS011;70090;43.208;27.904;2023-07-29T16:15:16;4.73;;;3.47;;
11522;SDS011;70090;43.208;27.904;2023-07-29T16:17:43;6.57;;;3.77;;
11522;SDS011;70090;43.208;27.904;2023-07-29T16:20:11;7.77;;;4.37;;
11522;SDS011;70090;43.208;27.904;2023-07-29T16:22:38;8.17;;;3.30;;
11522;SDS011;70090;43.208;27.904;2023-07-29T16:25:05;6.37;;;3.40;;
11522;SDS011;70090;43.208;27.904;2023-07-29T16:27:33;4.20;;;3.50;;
11522;SDS011;70090;43.208;27.904;2023-07-29T16:30:00;7.17;;;4.27;;
11522;SDS011;70090;43.208;27.904;2023-07-29T16:32:30;6.33;;;3.00;;
11522;SDS011;70090;43.208;27.904;2023-07-29T16:34:57;7.47;;;3.43;;
11522;SDS011;70090;43.208;27.904;2023-07-29T16:37:24;6.63;;;3.80;;
11522;SDS011;70090;43.208;27.904;2023-07-29T16:39:51;7.47;;;5.20;;
11522;SDS011;70090;43.208;27.904;2023-07-29T16:42:17;8.33;;;5.30;;
11522;SDS011;70090;43.208;27.904;2023-07-29T16:44:44;7.43;;;4.03;;
11522;SDS011;70090;43.208;27.904;2023-07-29T16:47:11;5.37;;;3.53;;
11522;SDS011;70090;43.208;27.904;2023-07-29T16:49:39;7.47;;;4.83;;
11522;SDS011;70090;43.208;27.904;2023-07-29T16:52:06;8.27;;;5.47;;
11522;SDS011;70090;43.208;27.904;2023-07-29T16:54:33;4.83;;;3.67;;
11522;SDS011;70090;43.208;27.904;2023-07-29T16:57:00;8.87;;;4.03;;
11522;SDS011;70090;43.208;27.904;2023-07-29T16:59:27;5.97;;;3.90;;
11522;SDS011;70090;43.208;27.904;2023-07-29T17:01:54;10.43;;;4.27;;
11522;SDS011;70090;43.208;27.904;2023-07-29T17:04:20;7.83;;;4.60;;
11522;SDS011;70090;43.208;27.904;2023-07-29T17:06:49;4.93;;;4.43;;
11522;SDS011;70090;43.208;27.904;2023-07-29T17:09:16;5.63;;;3.70;;
11522;SDS011;70090;43.208;27.904;2023-07-29T17:11:43;4.50;;;4.00;;
11522;SDS011;70090;43.208;27.904;2023-07-29T17:14:10;6.07;;;3.63;;
11522;SDS011;70090;43.208;27.904;2023-07-29T17:16:37;6.80;;;3.70;;
11522;SDS011;70090;43.208;27.904;2023-07-29T17:19:04;5.90;;;4.03;;
11522;SDS011;70090;43.208;27.904;2023-07-29T17:21:31;5.97;;;3.37;;
11522;SDS011;70090;43.208;27.904;2023-07-29T17:23:59;5.17;;;3.13;;
11522;SDS011;70090;43.208;27.904;2023-07-29T17:26:26;5.27;;;3.47;;
11522;SDS011;70090;43.208;27.904;2023-07-29T17:28:53;7.23;;;3.70;;
11522;SDS011;70090;43.208;27.904;2023-07-29T17:31:20;9.87;;;7.27;;
11522;SDS011;70090;43.208;27.904;2023-07-29T17:33:47;7.17;;;3.60;;
11522;SDS011;70090;43.208;27.904;2023-07-29T17:36:14;5.93;;;3.50;;
11522;SDS011;70090;43.208;27.904;2023-07-29T17:38:41;5.03;;;3.73;;
11522;SDS011;70090;43.208;27.904;2023-07-29T17:41:09;5.67;;;3.63;;
11522;SDS011;70090;43.208;27.904;2023-07-29T17:43:36;4.60;;;3.57;;
11522;SDS011;70090;43.208;27.904;2023-07-29T17:46:09;7.87;;;3.53;;
11522;SDS011;70090;43.208;27.904;2023-07-29T17:48:37;5.10;;;3.40;;
11522;SDS011;70090;43.208;27.904;2023-07-29T17:51:04;12.33;;;3.50;;
11522;SDS011;70090;43.208;27.904;2023-07-29T17:53:31;3.90;;;3.23;;
11522;SDS011;70090;43.208;27.904;2023-07-29T17:55:58;5.33;;;3.67;;
11522;SDS011;70090;43.208;27.904;2023-07-29T17:58:26;6.50;;;3.90;;
11522;SDS011;70090;43.208;27.904;2023-07-29T18:00:53;6.90;;;5.17;;
11522;SDS011;70090;43.208;27.904;2023-07-29T18:03:21;5.07;;;3.63;;
11522;SDS011;70090;43.208;27.904;2023-07-29T18:05:48;7.13;;;3.93;;
11522;SDS011;70090;43.208;27.904;2023-07-29T18:08:15;5.70;;;3.40;;
11522;SDS011;70090;43.208;27.904;2023-07-29T18:10:42;5.03;;;3.57;;
11522;SDS011;70090;43.208;27.904;2023-07-29T18:13:09;6.27;;;4.07;;
11522;SDS011;70090;43.208;27.904;2023-07-29T18:15:37;5.23;;;3.77;;